Terminal Aerodrome Forecast
Issued by NWS

Home | Current Version | Previous Version | Graphics & Text | Print | Product List | Glossary On
Versions: 1 2 3 4 5 6 7 8 9 10 11 12 13 14
000
FTUS43 KBIS 202320
TAFMOT
TAF
KMOT 202320Z 2100/2124 VRB04KT P6SM FEW130 FEW200
     FM210900 20005KT P6SM VCSH BKN110 BKN120
     FM211200 19004KT P6SM SCT090 BKN100
     FM211600 26007KT P6SM SCT120
     FM211900 32010KT P6SM SCT250=

USA.gov is the U.S. government's official web portal to all federal, state and local government web resources and services.